createdAt,value
2022-07-25T00:00:25.936Z,5.83
2022-07-25T00:02:54.268Z,5.90
2022-07-25T00:05:22.901Z,6.63
2022-07-25T00:07:51.595Z,6.37
2022-07-25T00:10:20.258Z,5.90
2022-07-25T00:12:49.968Z,5.80
2022-07-25T00:15:18.420Z,7.30
2022-07-25T00:17:46.811Z,6.20
2022-07-25T00:20:15.132Z,7.47
2022-07-25T00:22:43.365Z,6.27
2022-07-25T00:25:14.276Z,5.87
2022-07-25T00:27:42.534Z,8.20
2022-07-25T00:30:14.615Z,6.17
2022-07-25T00:32:42.940Z,6.33
2022-07-25T00:35:11.206Z,9.00
2022-07-25T00:37:39.489Z,6.20
2022-07-25T00:40:08.984Z,6.20
2022-07-25T00:42:37.265Z,5.60
2022-07-25T00:45:06.426Z,8.73
2022-07-25T00:47:36.204Z,5.47
2022-07-25T00:50:04.837Z,6.00
2022-07-25T00:52:34.071Z,6.10
2022-07-25T00:55:02.682Z,6.10
2022-07-25T00:57:31.041Z,6.47
2022-07-25T00:59:59.439Z,5.70
2022-07-25T01:02:27.721Z,5.67
2022-07-25T01:04:58.749Z,5.67
2022-07-25T01:07:27.434Z,7.53
2022-07-25T01:09:56.467Z,6.53
2022-07-25T01:12:24.693Z,6.00
2022-07-25T01:14:53.020Z,5.97
2022-07-25T01:17:21.349Z,6.80
2022-07-25T01:19:51.349Z,6.03
2022-07-25T01:22:21.008Z,8.03
2022-07-25T01:24:49.262Z,6.23
2022-07-25T01:27:18.874Z,6.57
2022-07-25T01:29:47.449Z,6.53
2022-07-25T01:32:15.815Z,6.50
2022-07-25T01:34:44.131Z,6.20
2022-07-25T01:37:14.889Z,6.70
2022-07-25T01:39:44.496Z,9.80
2022-07-25T01:42:12.753Z,6.60
2022-07-25T01:44:40.963Z,6.20
2022-07-25T01:47:09.225Z,7.23
2022-07-25T01:49:37.529Z,6.60
2022-07-25T01:52:06.123Z,8.67
2022-07-25T01:54:34.378Z,5.77
2022-07-25T01:57:05.014Z,7.50
2022-07-25T01:59:34.605Z,9.10
2022-07-25T02:02:02.913Z,5.70
2022-07-25T02:04:31.232Z,10.93
2022-07-25T02:06:59.496Z,7.80
2022-07-25T02:09:27.949Z,6.40
2022-07-25T02:11:56.351Z,6.73
2022-07-25T02:14:26.105Z,8.10
2022-07-25T02:16:54.404Z,8.43
2022-07-25T02:19:22.676Z,6.33
2022-07-25T02:21:51.037Z,8.57
2022-07-25T02:24:19.434Z,7.33
2022-07-25T02:26:47.798Z,7.93
2022-07-25T02:29:15.991Z,7.83
2022-07-25T02:31:45.607Z,6.83
2022-07-25T02:34:14.339Z,9.07
2022-07-25T02:36:42.830Z,6.70
2022-07-25T02:39:11.154Z,7.40
2022-07-25T02:41:39.856Z,11.27
2022-07-25T02:44:08.531Z,7.07
2022-07-25T02:46:37.139Z,8.93
2022-07-25T02:49:06.901Z,8.50
2022-07-25T02:51:35.238Z,7.93
2022-07-25T02:54:03.526Z,6.77
2022-07-25T02:56:33.223Z,6.37
2022-07-25T02:59:01.908Z,6.97
2022-07-25T03:01:30.610Z,8.10
2022-07-25T03:03:59.579Z,6.33
2022-07-25T03:06:29.643Z,6.67
2022-07-25T03:08:58.483Z,6.80
2022-07-25T03:11:27.421Z,6.70
2022-07-25T03:13:56.340Z,7.20
2022-07-25T03:16:24.987Z,11.03
2022-07-25T03:18:53.351Z,7.37
2022-07-25T03:21:21.671Z,6.10
2022-07-25T03:23:52.805Z,9.83
2022-07-25T03:26:21.384Z,6.80
2022-07-25T03:28:49.778Z,5.90
2022-07-25T03:31:18.216Z,9.50
2022-07-25T03:33:46.519Z,9.17
2022-07-25T03:36:14.827Z,6.63
2022-07-25T03:38:43.071Z,6.73
2022-07-25T03:41:13.540Z,6.10
2022-07-25T03:43:41.884Z,5.20
2022-07-25T03:46:10.210Z,6.50
2022-07-25T03:48:38.540Z,6.53
2022-07-25T03:51:07.497Z,18.37
2022-07-25T03:53:56.055Z,31.77
2022-07-25T03:56:25.761Z,38.63
2022-07-25T03:58:54.070Z,36.70
2022-07-25T04:01:22.501Z,29.63
2022-07-25T04:03:50.939Z,15.70
2022-07-25T04:06:19.723Z,14.63
2022-07-25T04:08:48.206Z,10.10
2022-07-25T04:11:16.631Z,9.10
2022-07-25T04:13:46.313Z,8.00
2022-07-25T04:16:14.952Z,6.93
2022-07-25T04:18:51.677Z,7.27
2022-07-25T04:21:20.313Z,6.40
2022-07-25T04:23:48.704Z,5.60
2022-07-25T04:26:17.479Z,6.77
2022-07-25T04:28:47.454Z,14.60
2022-07-25T04:31:16.224Z,6.40
2022-07-25T04:33:44.804Z,9.20
2022-07-25T04:36:13.499Z,6.57
2022-07-25T04:38:41.898Z,6.27
2022-07-25T04:41:10.192Z,7.90
2022-07-25T04:43:38.377Z,17.83
2022-07-25T04:46:08.220Z,84.80
2022-07-25T04:48:36.621Z,28.10
2022-07-25T04:51:05.056Z,22.27
2022-07-25T04:53:34.397Z,14.93
2022-07-25T04:56:02.706Z,12.47
2022-07-25T04:58:32.835Z,8.90
2022-07-25T05:01:01.628Z,8.87
2022-07-25T05:03:31.416Z,7.10
2022-07-25T05:05:59.709Z,6.30
2022-07-25T05:08:27.932Z,6.90
2022-07-25T05:10:56.259Z,6.80
2022-07-25T05:13:24.799Z,6.47
2022-07-25T05:15:53.247Z,6.13
2022-07-25T05:18:22.022Z,6.80
2022-07-25T05:20:51.728Z,39.80
2022-07-25T05:23:19.975Z,40.57
2022-07-25T05:25:48.258Z,29.33
2022-07-25T05:28:16.767Z,23.50
2022-07-25T05:30:45.092Z,16.67
2022-07-25T05:33:13.680Z,10.73
2022-07-25T05:35:42.085Z,9.60
2022-07-25T05:38:11.748Z,8.30
2022-07-25T05:40:40.241Z,7.70
2022-07-25T05:43:08.978Z,6.30
2022-07-25T05:45:37.260Z,6.30
2022-07-25T05:48:06.665Z,6.70
2022-07-25T05:50:34.992Z,5.40
2022-07-25T05:53:03.302Z,6.13
2022-07-25T05:55:32.938Z,5.60
2022-07-25T05:58:02.505Z,5.20
2022-07-25T06:00:31.273Z,6.00
2022-07-25T06:03:00.893Z,5.23
2022-07-25T06:05:29.441Z,6.00
2022-07-25T06:07:57.986Z,5.37
2022-07-25T06:10:26.409Z,4.90
2022-07-25T06:12:56.153Z,5.70
2022-07-25T06:15:26.919Z,11.47
2022-07-25T06:17:55.940Z,21.50
2022-07-25T06:20:24.409Z,25.83
2022-07-25T06:22:52.816Z,18.23
2022-07-25T06:25:21.905Z,14.60
2022-07-25T06:27:50.219Z,10.90
2022-07-25T06:30:20.707Z,9.03
2022-07-25T06:32:49.354Z,8.30
2022-07-25T06:35:18.235Z,6.73
2022-07-25T06:37:46.972Z,6.13
2022-07-25T06:40:15.682Z,6.00
2022-07-25T06:42:45.231Z,5.23
2022-07-25T06:45:15.459Z,6.13
2022-07-25T06:47:45.896Z,6.53
2022-07-25T06:50:18.463Z,7.80
2022-07-25T06:52:50.039Z,12.50
2022-07-25T06:55:18.339Z,119.40
2022-07-25T06:57:46.609Z,82.30
2022-07-25T07:00:15.862Z,59.87
2022-07-25T07:02:58.342Z,45.13
2022-07-25T07:05:28.436Z,35.87
2022-07-25T07:07:57.015Z,21.53
2022-07-25T07:10:26.146Z,16.30
2022-07-25T07:13:04.769Z,12.67
2022-07-25T07:15:36.753Z,8.07
2022-07-25T07:18:08.122Z,7.43
2022-07-25T07:20:36.600Z,7.00
2022-07-25T07:23:04.963Z,6.60
2022-07-25T07:25:34.452Z,5.63
2022-07-25T07:28:02.912Z,12.90
2022-07-25T07:30:58.445Z,58.53
2022-07-25T07:33:21.429Z,38.87
2022-07-25T07:35:49.646Z,23.33
2022-07-25T07:38:18.397Z,14.80
2022-07-25T07:40:46.777Z,11.77
2022-07-25T07:43:15.453Z,8.43
2022-07-25T07:45:44.322Z,6.77
2022-07-25T07:48:13.761Z,5.80
2022-07-25T07:50:43.739Z,5.53
2022-07-25T07:53:12.067Z,5.40
2022-07-25T07:55:45.564Z,5.80
2022-07-25T07:58:16.730Z,7.70
2022-07-25T08:00:46.049Z,8.53
2022-07-25T08:03:17.965Z,7.50
2022-07-25T08:05:48.107Z,11.87
2022-07-25T08:08:17.527Z,50.60
2022-07-25T08:10:47.565Z,13.30
2022-07-25T08:13:17.764Z,8.03
2022-07-25T08:15:48.237Z,5.67
2022-07-25T08:18:18.276Z,5.20
2022-07-25T08:20:48.545Z,6.80
2022-07-25T08:23:17.621Z,6.07
2022-07-25T08:25:46.937Z,7.40
2022-07-25T08:28:15.911Z,8.07
2022-07-25T08:30:44.622Z,5.93
2022-07-25T08:33:16.216Z,8.20
2022-07-25T08:35:51.805Z,5.43
2022-07-25T08:38:20.487Z,5.67
2022-07-25T08:40:49.205Z,5.23
2022-07-25T08:43:19.174Z,7.23
2022-07-25T08:45:49.109Z,6.00
2022-07-25T08:48:19.528Z,5.50
2022-07-25T08:50:50.453Z,11.37
2022-07-25T08:53:36.142Z,7.60
2022-07-25T08:56:11.648Z,6.77
2022-07-25T08:58:44.178Z,12.73
2022-07-25T09:01:13.260Z,5.73
2022-07-25T09:03:43.229Z,15.67
2022-07-25T09:06:22.227Z,7.90
2022-07-25T09:08:55.489Z,5.83
2022-07-25T09:11:34.160Z,4.73
2022-07-25T09:14:05.132Z,4.50
2022-07-25T09:16:35.401Z,4.33
2022-07-25T09:19:11.937Z,5.33
2022-07-25T09:21:43.081Z,5.63
2022-07-25T09:24:16.299Z,19.97
2022-07-25T09:26:46.240Z,21.20
2022-07-25T09:29:19.086Z,7.40
2022-07-25T09:31:48.021Z,5.63
2022-07-25T09:34:21.880Z,4.30
2022-07-25T09:36:56.369Z,4.60
2022-07-25T09:39:43.473Z,3.30
2022-07-25T09:42:23.284Z,3.17
2022-07-25T09:45:07.428Z,3.20
2022-07-25T09:47:38.866Z,4.17
2022-07-25T09:50:08.573Z,3.17
2022-07-25T09:52:39.414Z,12.17
2022-07-25T09:55:10.194Z,9.90
2022-07-25T09:57:38.724Z,3.97
2022-07-25T10:00:09.728Z,4.43
2022-07-25T10:02:50.020Z,3.20
2022-07-25T10:05:31.103Z,2.87
2022-07-25T10:08:01.802Z,2.90
2022-07-25T10:10:32.207Z,2.80
2022-07-25T10:13:10.233Z,3.03
2022-07-25T10:15:44.642Z,3.70
2022-07-25T10:18:13.567Z,18.37
2022-07-25T10:20:42.064Z,19.00
2022-07-25T10:23:23.486Z,8.70
2022-07-25T10:26:03.143Z,5.07
2022-07-25T10:28:44.109Z,4.73
2022-07-25T10:31:22.584Z,3.10
2022-07-25T10:33:54.339Z,2.50
2022-07-25T10:36:24.335Z,2.90
2022-07-25T10:38:58.110Z,2.93
2022-07-25T10:41:28.353Z,3.13
2022-07-25T10:44:01.786Z,9.93
2022-07-25T10:46:32.679Z,4.03
2022-07-25T10:49:03.727Z,2.73
2022-07-25T10:51:39.467Z,2.43
2022-07-25T10:54:19.371Z,3.17
2022-07-25T10:56:56.115Z,2.73
2022-07-25T10:59:29.537Z,2.50
2022-07-25T11:01:58.378Z,5.03
2022-07-25T11:04:27.718Z,3.03
2022-07-25T11:06:56.146Z,4.13
2022-07-25T11:09:28.146Z,17.47
2022-07-25T11:11:58.400Z,6.00
2022-07-25T11:14:31.294Z,3.80
2022-07-25T11:17:11.338Z,9.33
2022-07-25T11:19:39.681Z,4.23
2022-07-25T11:22:08.420Z,7.03
2022-07-25T11:24:40.384Z,6.00
2022-07-25T11:27:12.469Z,3.50
2022-07-25T11:29:42.205Z,3.00
2022-07-25T11:32:12.579Z,5.37
2022-07-25T11:34:44.471Z,4.53
2022-07-25T11:37:14.630Z,4.90
2022-07-25T11:39:47.176Z,30.80
2022-07-25T11:42:17.894Z,5.00
2022-07-25T11:44:48.821Z,8.10
2022-07-25T11:47:26.268Z,9.30
2022-07-25T11:49:55.904Z,12.20
2022-07-25T11:52:26.489Z,5.00
2022-07-25T11:54:58.353Z,10.90
2022-07-25T11:57:28.567Z,26.83
2022-07-25T11:59:57.754Z,5.83
2022-07-25T12:02:27.281Z,4.40
2022-07-25T12:04:58.124Z,5.53
2022-07-25T12:07:38.053Z,6.87
2022-07-25T12:10:09.723Z,6.33
2022-07-25T12:12:49.769Z,2.47
2022-07-25T12:15:21.259Z,3.40
2022-07-25T12:17:50.718Z,6.40
2022-07-25T12:20:21.376Z,4.30
2022-07-25T12:22:51.290Z,7.90
2022-07-25T12:25:21.248Z,4.47
2022-07-25T12:27:50.128Z,2.40
2022-07-25T12:30:19.604Z,1.97
2022-07-25T12:32:48.139Z,5.20
2022-07-25T12:35:16.999Z,2.57
2022-07-25T12:37:45.557Z,4.13
2022-07-25T12:40:17.592Z,3.80
2022-07-25T12:42:47.657Z,2.00
2022-07-25T12:45:17.796Z,2.03
2022-07-25T12:47:47.339Z,2.23
2022-07-25T12:50:17.927Z,4.33
2022-07-25T12:52:47.334Z,2.40
2022-07-25T12:55:20.726Z,3.23
2022-07-25T12:57:50.617Z,2.90
2022-07-25T13:00:21.056Z,3.27
2022-07-25T13:02:51.347Z,2.20
2022-07-25T13:05:20.097Z,3.70
2022-07-25T13:07:49.303Z,2.40
2022-07-25T13:10:20.534Z,3.40
2022-07-25T13:12:51.830Z,1.87
2022-07-25T13:15:23.258Z,2.17
2022-07-25T13:17:51.965Z,5.20
2022-07-25T13:20:20.310Z,2.20
2022-07-25T13:22:48.994Z,2.60
2022-07-25T13:25:19.758Z,3.60
2022-07-25T13:27:49.581Z,1.67
2022-07-25T13:30:19.800Z,2.17
2022-07-25T13:32:48.342Z,4.40
2022-07-25T13:35:20.418Z,1.87
2022-07-25T13:37:49.514Z,3.70
2022-07-25T13:40:18.310Z,4.77
2022-07-25T13:42:46.813Z,3.67
2022-07-25T13:45:15.194Z,1.97
2022-07-25T13:47:45.084Z,4.13
2022-07-25T13:50:13.498Z,3.33
2022-07-25T13:52:41.783Z,3.67
2022-07-25T13:55:11.383Z,2.90
2022-07-25T13:57:39.784Z,3.53
2022-07-25T14:00:09.808Z,4.13
2022-07-25T14:02:38.280Z,3.13
2022-07-25T14:05:09.094Z,2.90
2022-07-25T14:07:38.022Z,5.97
2022-07-25T14:10:08.533Z,3.70
2022-07-25T14:12:39.502Z,3.30
2022-07-25T14:15:09.363Z,2.77
2022-07-25T14:17:38.873Z,4.50
2022-07-25T14:20:10.615Z,4.53
2022-07-25T14:22:39.671Z,8.13
2022-07-25T14:25:09.024Z,5.80
2022-07-25T14:27:38.557Z,2.87
2022-07-25T14:30:09.088Z,3.53
2022-07-25T14:32:37.777Z,5.40
2022-07-25T14:35:08.261Z,3.00
2022-07-25T14:37:36.555Z,4.73
2022-07-25T14:40:05.782Z,4.40
2022-07-25T14:42:34.812Z,3.30
2022-07-25T14:45:03.156Z,3.93
2022-07-25T14:47:31.475Z,7.87
2022-07-25T14:49:59.767Z,3.23
2022-07-25T14:52:29.588Z,3.40
2022-07-25T14:54:57.957Z,10.90
2022-07-25T14:57:26.522Z,7.40
2022-07-25T14:59:54.836Z,22.10
2022-07-25T15:02:23.396Z,5.53
2022-07-25T15:04:51.852Z,4.07
2022-07-25T15:07:20.299Z,13.93
2022-07-25T15:09:50.009Z,14.70
2022-07-25T15:12:19.726Z,5.23
2022-07-25T15:14:48.006Z,4.00
2022-07-25T15:17:16.307Z,10.13
2022-07-25T15:19:44.597Z,5.50
2022-07-25T15:22:12.917Z,2.73
2022-07-25T15:25:16.808Z,3.90
2022-07-25T15:27:30.984Z,5.03
2022-07-25T15:29:59.288Z,4.50
2022-07-25T15:32:27.662Z,3.97
2022-07-25T15:34:55.955Z,6.30
2022-07-25T15:37:24.472Z,2.10
2022-07-25T15:39:52.732Z,3.23
2022-07-25T15:42:24.478Z,4.17
2022-07-25T15:45:29.803Z,2.40
2022-07-25T15:47:50.381Z,3.20
2022-07-25T15:50:19.472Z,8.97
2022-07-25T15:52:48.152Z,2.50
2022-07-25T15:55:16.568Z,3.20
2022-07-25T15:57:44.903Z,5.17
2022-07-25T16:00:15.522Z,12.70
2022-07-25T16:02:44.948Z,4.60
2022-07-25T16:05:13.555Z,4.20
2022-07-25T16:07:42.119Z,3.23
2022-07-25T16:10:11.862Z,2.47
2022-07-25T16:12:40.278Z,3.50
2022-07-25T16:15:09.582Z,6.77
2022-07-25T16:17:40.069Z,3.70
2022-07-25T16:20:10.242Z,2.63
2022-07-25T16:22:39.397Z,3.83
2022-07-25T16:25:08.603Z,3.73
2022-07-25T16:27:37.124Z,5.37
2022-07-25T16:30:06.264Z,3.97
2022-07-25T16:32:35.157Z,2.80
2022-07-25T16:35:05.294Z,2.87
2022-07-25T16:37:33.586Z,3.13
2022-07-25T16:40:03.003Z,1.90
2022-07-25T16:42:31.366Z,2.17
2022-07-25T16:44:59.679Z,3.93
2022-07-25T16:47:28.017Z,3.00
2022-07-25T16:49:56.239Z,4.00
2022-07-25T16:52:25.919Z,4.60
2022-07-25T16:54:54.468Z,4.30
2022-07-25T16:57:24.945Z,3.30
2022-07-25T16:59:54.296Z,3.73
2022-07-25T17:02:27.749Z,2.03
2022-07-25T17:04:57.541Z,2.90
2022-07-25T17:07:27.326Z,5.30
2022-07-25T17:09:55.765Z,3.43
2022-07-25T17:12:24.360Z,27.30
2022-07-25T17:14:53.111Z,31.70
2022-07-25T17:17:22.015Z,5.33
2022-07-25T17:19:50.258Z,5.53
2022-07-25T17:22:20.223Z,5.40
2022-07-25T17:24:53.281Z,19.43
2022-07-25T17:27:22.044Z,51.30
2022-07-25T17:29:50.516Z,15.60
2022-07-25T17:32:18.801Z,4.37
2022-07-25T17:34:47.175Z,5.20
2022-07-25T17:37:15.620Z,4.13
2022-07-25T17:39:43.957Z,5.13
2022-07-25T17:42:13.666Z,3.60
2022-07-25T17:44:41.955Z,1.60
2022-07-25T17:47:10.257Z,2.43
2022-07-25T17:49:38.522Z,5.37
2022-07-25T17:52:06.885Z,1.60
2022-07-25T17:54:35.253Z,3.40
2022-07-25T17:57:04.597Z,2.77
2022-07-25T17:59:35.171Z,2.57
2022-07-25T18:02:03.783Z,7.60
2022-07-25T18:04:32.397Z,6.53
2022-07-25T18:07:00.791Z,6.00
2022-07-25T18:09:29.349Z,3.67
2022-07-25T18:12:00.156Z,2.27
2022-07-25T18:14:28.563Z,4.17
2022-07-25T18:16:58.725Z,2.23
2022-07-25T18:19:27.169Z,1.97
2022-07-25T18:21:55.567Z,2.70
2022-07-25T18:24:29.337Z,5.47
2022-07-25T18:26:58.235Z,4.97
2022-07-25T18:29:27.209Z,3.07
2022-07-25T18:31:57.033Z,2.97
2022-07-25T18:34:25.715Z,2.60
2022-07-25T18:36:54.085Z,2.50
2022-07-25T18:39:22.465Z,3.03
2022-07-25T18:41:50.843Z,7.27
2022-07-25T18:44:20.685Z,3.30
2022-07-25T18:46:49.083Z,1.83
2022-07-25T18:49:18.939Z,0.80
2022-07-25T18:51:47.316Z,1.90
2022-07-25T18:54:15.627Z,3.07
2022-07-25T18:56:45.144Z,1.50
2022-07-25T18:59:13.466Z,1.80
2022-07-25T19:01:42.724Z,3.33
2022-07-25T19:04:11.479Z,2.33
2022-07-25T19:06:41.342Z,2.83
2022-07-25T19:09:10.216Z,11.17
2022-07-25T19:11:42.133Z,19.37
2022-07-25T19:14:11.094Z,9.07
2022-07-25T19:16:39.514Z,5.70
2022-07-25T19:19:09.575Z,4.40
2022-07-25T19:21:38.237Z,1.80
2022-07-25T19:24:08.766Z,1.83
2022-07-25T19:26:37.245Z,1.93
2022-07-25T19:29:06.922Z,1.63
2022-07-25T19:31:37.387Z,1.83
2022-07-25T19:34:06.320Z,1.70
2022-07-25T19:36:34.762Z,0.80
2022-07-25T19:39:03.370Z,1.90
2022-07-25T19:41:33.413Z,1.60
2022-07-25T19:44:01.896Z,2.93
2022-07-25T19:46:33.556Z,2.43
2022-07-25T19:49:04.190Z,2.00
2022-07-25T19:51:33.664Z,5.90
2022-07-25T19:54:04.224Z,3.50
2022-07-25T19:56:34.481Z,1.63
2022-07-25T19:59:03.032Z,2.20
2022-07-25T20:01:35.989Z,1.77
2022-07-25T20:04:08.810Z,2.33
2022-07-25T20:06:37.681Z,1.07
2022-07-25T20:09:07.081Z,4.70
2022-07-25T20:11:37.336Z,7.10
2022-07-25T20:14:06.264Z,2.07
2022-07-25T20:16:36.125Z,2.37
2022-07-25T20:19:05.542Z,2.20
2022-07-25T20:21:34.372Z,3.80
2022-07-25T20:24:02.616Z,1.30
2022-07-25T20:26:30.909Z,1.10
2022-07-25T20:29:00.615Z,3.37
2022-07-25T20:31:31.508Z,4.40
2022-07-25T20:33:59.836Z,2.70
2022-07-25T20:36:28.104Z,3.53
2022-07-25T20:38:56.416Z,3.23
2022-07-25T20:41:25.315Z,1.30
2022-07-25T20:43:54.199Z,1.83
2022-07-25T20:46:23.976Z,2.27
2022-07-25T20:48:52.432Z,5.07
2022-07-25T20:51:20.760Z,4.53
2022-07-25T20:53:53.240Z,2.87
2022-07-25T20:56:22.115Z,1.50
2022-07-25T20:58:50.484Z,1.53
2022-07-25T21:01:18.846Z,1.33
2022-07-25T21:03:48.786Z,2.47
2022-07-25T21:06:17.083Z,1.47
2022-07-25T21:09:32.519Z,2.30
2022-07-25T21:12:19.691Z,2.63
2022-07-25T21:14:53.410Z,4.77
2022-07-25T21:20:44.547Z,2.00
2022-07-25T21:26:51.315Z,3.03
2022-07-25T21:29:25.147Z,1.73
2022-07-25T21:32:03.435Z,1.27
2022-07-25T21:34:56.827Z,2.03
2022-07-25T21:37:29.462Z,2.30
2022-07-25T21:40:11.359Z,6.97
2022-07-25T21:43:04.236Z,2.10
2022-07-25T21:45:40.040Z,3.97
2022-07-25T21:51:19.324Z,2.37
2022-07-25T21:57:14.254Z,2.07
2022-07-25T21:59:44.585Z,1.50
2022-07-25T22:02:14.775Z,2.80
2022-07-25T22:04:54.174Z,3.27
2022-07-25T22:07:39.257Z,2.83
2022-07-25T22:10:20.959Z,1.93
2022-07-25T22:13:08.625Z,1.10
2022-07-25T22:15:43.187Z,1.70
2022-07-25T22:18:28.588Z,1.03
2022-07-25T22:21:04.425Z,2.13
2022-07-25T22:23:48.847Z,2.13
2022-07-25T22:26:32.572Z,1.33
2022-07-25T22:32:33.745Z,2.27
2022-07-25T22:35:33.076Z,2.43
2022-07-25T22:38:01.403Z,3.97
2022-07-25T22:40:29.868Z,3.20
2022-07-25T22:42:59.801Z,3.00
2022-07-25T22:45:28.358Z,1.57
2022-07-25T22:47:56.913Z,2.17
2022-07-25T22:50:25.210Z,2.87
2022-07-25T22:52:53.505Z,3.03
2022-07-25T22:55:21.861Z,1.67
2022-07-25T22:57:50.239Z,1.27
2022-07-25T23:00:20.020Z,3.90
2022-07-25T23:02:50.005Z,2.60
2022-07-25T23:05:18.295Z,3.80
2022-07-25T23:07:49.360Z,3.03
2022-07-25T23:10:17.811Z,2.67
2022-07-25T23:12:49.793Z,3.23
2022-07-25T23:15:19.490Z,3.23
2022-07-25T23:17:47.750Z,4.63
2022-07-25T23:20:16.040Z,2.20
2022-07-25T23:22:44.334Z,4.10
2022-07-25T23:25:13.848Z,4.70
2022-07-25T23:27:42.161Z,1.40
2022-07-25T23:30:11.353Z,1.57
2022-07-25T23:32:41.001Z,1.63
2022-07-25T23:35:10.127Z,4.77
2022-07-25T23:37:38.439Z,2.97
2022-07-25T23:40:07.878Z,0.93
2022-07-25T23:42:36.228Z,2.43
2022-07-25T23:45:05.084Z,3.43
2022-07-25T23:47:39.268Z,2.13
2022-07-25T23:50:11.548Z,5.30
2022-07-25T23:52:39.888Z,3.27
2022-07-25T23:55:09.467Z,2.50
2022-07-25T23:57:37.856Z,3.97
